St Croix, Virgin Islands
Current Conditions -  °F | °C
As of 11:53 PM on Thursday 30 Oct 2014 (Local Time) from TISX Reporting Station
Overcast Overcast  
Wind Chill: 78°   Ceiling: 3300
Heat Index: 81°   Visibility: 10mi
Dew Point: 75°   Wind: 3mph
Humidity: 90%   Direction: 360°N
Pressure: 29.87"   Gusts: NA
Location:  17.7488°N, 64.7039°W
Report Text: TISX 310353Z 36003KT 10SM SCT024 BKN033 OVC075 26/24 A2987 RMK AO2 RAE02 SLP115 P0000 T02560239 403110233 $
Loading
Personal Weather Stations






























Interactive Weather Map
Tropical Storm Tracking
New forecast layout! Learn more

10-Day Weather Forecast

Advertisements
Track Severe Weather on mobile